Terminal Aerodrome Forecast
Issued by NWS

Home | Current Version | Previous Version | Text Only | Print | Product List | Glossary On
Versions: 1 2 3 4 5 6 7 8 9 10 11 12 13 14 15 16 17
000
FTUS43 KSGF 260200 AAA
TAFJLN
TAF AMD
KJLN 260233Z 2603/2624 33013G19KT P6SM OVC025
     FM260400 34008KT P6SM OVC025
     FM260700 VRB04KT 6SM BR FEW025
      TEMPO 2610/2613 2SM BR SCT005
     FM261400 21009KT P6SM SKC
     FM261700 25013G20KT P6SM FEW100=

USA.gov is the U.S. government's official web portal to all federal, state and local government web resources and services.